sensor_id;sensor_type;location;lat;lon;timestamp;pressure;altitude;pressure_sealevel;temperature;humidity
3544;BME280;1786;52.870;9.578;2023-05-10T00:00:54;99841.97;;;30.47;25.52
3544;BME280;1786;52.870;9.578;2023-05-10T00:03:21;99857.84;;;30.83;25.49
3544;BME280;1786;52.870;9.578;2023-05-10T00:05:47;99847.50;;;30.23;26.45
3544;BME280;1786;52.870;9.578;2023-05-10T00:08:14;99851.16;;;30.29;25.96
3544;BME280;1786;52.870;9.578;2023-05-10T00:10:40;99844.19;;;30.67;25.61
3544;BME280;1786;52.870;9.578;2023-05-10T00:13:07;99844.25;;;30.72;26.07
3544;BME280;1786;52.870;9.578;2023-05-10T00:15:34;99836.25;;;31.16;25.57
3544;BME280;1786;52.870;9.578;2023-05-10T00:18:01;99832.28;;;29.82;26.55
3544;BME280;1786;52.870;9.578;2023-05-10T00:20:27;99833.66;;;30.25;26.45
3544;BME280;1786;52.870;9.578;2023-05-10T00:22:54;99838.13;;;30.81;26.40
3544;BME280;1786;52.870;9.578;2023-05-10T00:25:21;99831.75;;;30.88;26.09
3544;BME280;1786;52.870;9.578;2023-05-10T00:27:48;99835.59;;;30.92;26.10
3544;BME280;1786;52.870;9.578;2023-05-10T00:30:16;99828.88;;;31.16;25.72
3544;BME280;1786;52.870;9.578;2023-05-10T00:32:43;99828.94;;;30.82;26.49
3544;BME280;1786;52.870;9.578;2023-05-10T00:35:10;99821.63;;;31.05;25.75
3544;BME280;1786;52.870;9.578;2023-05-10T00:37:36;99812.38;;;30.89;26.57
3544;BME280;1786;52.870;9.578;2023-05-10T00:40:03;99810.38;;;31.01;26.43
3544;BME280;1786;52.870;9.578;2023-05-10T00:42:31;99815.34;;;31.26;26.41
3544;BME280;1786;52.870;9.578;2023-05-10T00:44:58;99823.84;;;31.47;26.14
3544;BME280;1786;52.870;9.578;2023-05-10T00:47:24;99811.34;;;31.73;25.90
3544;BME280;1786;52.870;9.578;2023-05-10T00:49:51;99818.44;;;31.30;26.06
3544;BME280;1786;52.870;9.578;2023-05-10T00:52:18;99813.44;;;31.27;26.08
3544;BME280;1786;52.870;9.578;2023-05-10T00:54:44;99818.56;;;31.01;26.05
3544;BME280;1786;52.870;9.578;2023-05-10T00:57:11;99811.88;;;30.58;26.59
3544;BME280;1786;52.870;9.578;2023-05-10T00:59:38;99808.22;;;31.03;26.39
3544;BME280;1786;52.870;9.578;2023-05-10T01:02:05;99801.19;;;31.46;26.19
3544;BME280;1786;52.870;9.578;2023-05-10T01:04:32;99806.34;;;31.43;25.96
3544;BME280;1786;52.870;9.578;2023-05-10T01:06:59;99796.28;;;31.10;26.65
3544;BME280;1786;52.870;9.578;2023-05-10T01:09:26;99799.63;;;30.78;26.83
3544;BME280;1786;52.870;9.578;2023-05-10T01:11:53;99800.00;;;30.65;26.57
3544;BME280;1786;52.870;9.578;2023-05-10T01:14:22;99799.47;;;30.34;27.09
3544;BME280;1786;52.870;9.578;2023-05-10T01:16:49;99791.44;;;29.98;27.63
3544;BME280;1786;52.870;9.578;2023-05-10T01:19:24;99795.69;;;30.52;27.27
3544;BME280;1786;52.870;9.578;2023-05-10T01:30:20;99793.72;;;30.47;27.42
3544;BME280;1786;52.870;9.578;2023-05-10T01:32:57;99792.44;;;30.89;27.46
3544;BME280;1786;52.870;9.578;2023-05-10T01:35:36;99797.84;;;30.83;27.60
3544;BME280;1786;52.870;9.578;2023-05-10T01:38:18;99801.47;;;30.72;27.70
3544;BME280;1786;52.870;9.578;2023-05-10T01:46:37;99790.16;;;30.18;28.22
3544;BME280;1786;52.870;9.578;2023-05-10T01:49:09;99790.06;;;30.25;28.29
3544;BME280;1786;52.870;9.578;2023-05-10T01:52:06;99783.16;;;29.24;29.44
3544;BME280;1786;52.870;9.578;2023-05-10T01:54:33;99781.88;;;29.67;28.81
3544;BME280;1786;52.870;9.578;2023-05-10T01:57:03;99793.13;;;29.59;29.10
3544;BME280;1786;52.870;9.578;2023-05-10T01:59:34;99783.41;;;29.63;28.35
3544;BME280;1786;52.870;9.578;2023-05-10T02:02:08;99785.72;;;30.12;28.28
3544;BME280;1786;52.870;9.578;2023-05-10T02:04:41;99789.06;;;30.65;28.21
3544;BME280;1786;52.870;9.578;2023-05-10T02:07:09;99788.03;;;30.20;28.27
3544;BME280;1786;52.870;9.578;2023-05-10T02:09:37;99792.28;;;29.70;28.89
3544;BME280;1786;52.870;9.578;2023-05-10T02:12:06;99790.47;;;29.76;28.71
3544;BME280;1786;52.870;9.578;2023-05-10T02:14:35;99789.97;;;29.50;28.91
3544;BME280;1786;52.870;9.578;2023-05-10T02:17:04;99787.34;;;30.13;28.61
3544;BME280;1786;52.870;9.578;2023-05-10T02:19:33;99791.88;;;30.36;28.69
3544;BME280;1786;52.870;9.578;2023-05-10T02:22:01;99790.06;;;30.25;28.65
3544;BME280;1786;52.870;9.578;2023-05-10T02:24:32;99795.22;;;30.09;28.54
3544;BME280;1786;52.870;9.578;2023-05-10T02:27:02;99791.91;;;29.79;29.13
3544;BME280;1786;52.870;9.578;2023-05-10T02:29:31;99792.56;;;29.86;29.10
3544;BME280;1786;52.870;9.578;2023-05-10T02:31:58;99788.75;;;30.15;28.92
3544;BME280;1786;52.870;9.578;2023-05-10T02:34:27;99792.13;;;30.51;28.54
3544;BME280;1786;52.870;9.578;2023-05-10T02:36:55;99787.53;;;29.25;29.59
3544;BME280;1786;52.870;9.578;2023-05-10T02:39:22;99788.72;;;29.29;29.52
3544;BME280;1786;52.870;9.578;2023-05-10T02:41:51;99789.00;;;29.16;29.33
3544;BME280;1786;52.870;9.578;2023-05-10T02:44:20;99779.63;;;29.12;29.86
3544;BME280;1786;52.870;9.578;2023-05-10T02:46:47;99778.69;;;28.59;29.92
3544;BME280;1786;52.870;9.578;2023-05-10T02:49:15;99786.31;;;29.45;29.57
3544;BME280;1786;52.870;9.578;2023-05-10T02:51:45;99788.28;;;29.21;29.54
3544;BME280;1786;52.870;9.578;2023-05-10T02:54:19;99783.81;;;29.43;29.62
3544;BME280;1786;52.870;9.578;2023-05-10T02:56:51;99785.88;;;29.76;29.29
3544;BME280;1786;52.870;9.578;2023-05-10T02:59:20;99777.63;;;29.07;29.84
3544;BME280;1786;52.870;9.578;2023-05-10T03:01:46;99780.91;;;28.98;30.05
3544;BME280;1786;52.870;9.578;2023-05-10T03:04:13;99779.28;;;28.97;29.76
3544;BME280;1786;52.870;9.578;2023-05-10T03:06:40;99769.63;;;28.23;30.95
3544;BME280;1786;52.870;9.578;2023-05-10T03:09:07;99770.47;;;28.36;30.51
3544;BME280;1786;52.870;9.578;2023-05-10T03:17:01;99768.16;;;28.86;29.97
3544;BME280;1786;52.870;9.578;2023-05-10T03:19:41;99762.25;;;28.78;30.40
3544;BME280;1786;52.870;9.578;2023-05-10T03:22:10;99761.88;;;28.98;30.25
3544;BME280;1786;52.870;9.578;2023-05-10T03:24:40;99759.63;;;28.95;30.02
3544;BME280;1786;52.870;9.578;2023-05-10T03:27:08;99757.41;;;28.68;29.92
3544;BME280;1786;52.870;9.578;2023-05-10T03:29:36;99763.06;;;29.02;29.96
3544;BME280;1786;52.870;9.578;2023-05-10T03:32:03;99758.94;;;28.64;30.61
3544;BME280;1786;52.870;9.578;2023-05-10T03:34:31;99758.72;;;28.54;30.23
3544;BME280;1786;52.870;9.578;2023-05-10T03:36:58;99764.13;;;29.01;30.12
3544;BME280;1786;52.870;9.578;2023-05-10T03:39:27;99771.03;;;28.26;30.98
3544;BME280;1786;52.870;9.578;2023-05-10T03:41:56;99773.00;;;28.73;30.16
3544;BME280;1786;52.870;9.578;2023-05-10T03:44:23;99774.22;;;28.23;30.87
3544;BME280;1786;52.870;9.578;2023-05-10T03:46:50;99769.78;;;28.40;30.74
3544;BME280;1786;52.870;9.578;2023-05-10T03:49:17;99763.28;;;28.41;30.88
3544;BME280;1786;52.870;9.578;2023-05-10T03:51:44;99773.13;;;28.54;30.65
3544;BME280;1786;52.870;9.578;2023-05-10T03:54:11;99767.72;;;28.24;30.99
3544;BME280;1786;52.870;9.578;2023-05-10T03:56:37;99767.84;;;28.29;31.04
3544;BME280;1786;52.870;9.578;2023-05-10T03:59:05;99774.13;;;28.30;30.61
3544;BME280;1786;52.870;9.578;2023-05-10T04:01:35;99767.94;;;28.76;30.22
3544;BME280;1786;52.870;9.578;2023-05-10T04:04:02;99773.38;;;28.88;30.46
3544;BME280;1786;52.870;9.578;2023-05-10T04:06:30;99773.22;;;29.70;29.72
3544;BME280;1786;52.870;9.578;2023-05-10T04:08:57;99768.75;;;29.12;30.46
3544;BME280;1786;52.870;9.578;2023-05-10T04:11:26;99763.84;;;29.38;29.51
3544;BME280;1786;52.870;9.578;2023-05-10T04:13:53;99771.09;;;28.85;30.27
3544;BME280;1786;52.870;9.578;2023-05-10T04:16:19;99765.91;;;29.19;30.26
3544;BME280;1786;52.870;9.578;2023-05-10T04:18:46;99765.94;;;28.83;30.29
3544;BME280;1786;52.870;9.578;2023-05-10T04:21:13;99763.50;;;28.40;30.32
3544;BME280;1786;52.870;9.578;2023-05-10T04:23:40;99776.09;;;28.88;30.11
3544;BME280;1786;52.870;9.578;2023-05-10T04:26:07;99763.03;;;28.43;30.98
3544;BME280;1786;52.870;9.578;2023-05-10T04:28:34;99768.75;;;28.77;30.78
3544;BME280;1786;52.870;9.578;2023-05-10T04:31:02;99771.25;;;28.78;30.43
3544;BME280;1786;52.870;9.578;2023-05-10T04:33:29;99776.03;;;29.35;29.97
3544;BME280;1786;52.870;9.578;2023-05-10T04:35:56;99769.47;;;28.60;30.46
3544;BME280;1786;52.870;9.578;2023-05-10T04:38:23;99769.59;;;28.12;30.65
3544;BME280;1786;52.870;9.578;2023-05-10T04:40:50;99771.69;;;28.75;30.98
3544;BME280;1786;52.870;9.578;2023-05-10T04:43:17;99770.88;;;28.09;31.27
3544;BME280;1786;52.870;9.578;2023-05-10T04:45:44;99765.69;;;28.08;31.31
3544;BME280;1786;52.870;9.578;2023-05-10T04:48:10;99769.53;;;27.88;31.67
3544;BME280;1786;52.870;9.578;2023-05-10T04:50:37;99761.78;;;29.16;30.42
3544;BME280;1786;52.870;9.578;2023-05-10T04:53:05;99765.00;;;29.53;30.14
3544;BME280;1786;52.870;9.578;2023-05-10T04:55:31;99772.66;;;28.69;31.06
3544;BME280;1786;52.870;9.578;2023-05-10T04:57:58;99771.94;;;28.97;30.98
3544;BME280;1786;52.870;9.578;2023-05-10T05:00:25;99782.09;;;28.55;30.88
3544;BME280;1786;52.870;9.578;2023-05-10T05:02:52;99773.97;;;28.24;31.23
3544;BME280;1786;52.870;9.578;2023-05-10T05:05:19;99780.47;;;29.12;30.46
3544;BME280;1786;52.870;9.578;2023-05-10T05:07:45;99770.03;;;28.98;30.44
3544;BME280;1786;52.870;9.578;2023-05-10T05:10:13;99774.31;;;30.15;29.88
3544;BME280;1786;52.870;9.578;2023-05-10T05:12:40;99782.56;;;30.03;30.12
3544;BME280;1786;52.870;9.578;2023-05-10T05:15:07;99789.28;;;29.84;29.87
3544;BME280;1786;52.870;9.578;2023-05-10T05:17:35;99784.50;;;28.63;31.40
3544;BME280;1786;52.870;9.578;2023-05-10T05:20:02;99777.94;;;29.23;30.30
3544;BME280;1786;52.870;9.578;2023-05-10T05:22:29;99795.28;;;29.57;29.88
3544;BME280;1786;52.870;9.578;2023-05-10T05:24:57;99785.19;;;29.05;30.83
3544;BME280;1786;52.870;9.578;2023-05-10T05:27:24;99797.22;;;28.98;30.89
3544;BME280;1786;52.870;9.578;2023-05-10T05:29:53;99791.94;;;29.15;30.78
3544;BME280;1786;52.870;9.578;2023-05-10T05:32:20;99789.44;;;29.25;31.06
3544;BME280;1786;52.870;9.578;2023-05-10T05:34:47;99798.53;;;29.30;31.55
3544;BME280;1786;52.870;9.578;2023-05-10T05:37:20;99797.59;;;29.13;31.37
3544;BME280;1786;52.870;9.578;2023-05-10T05:39:48;99803.00;;;29.89;31.34
3544;BME280;1786;52.870;9.578;2023-05-10T05:42:15;99802.22;;;30.05;30.96
3544;BME280;1786;52.870;9.578;2023-05-10T05:44:43;99815.25;;;30.03;31.18
3544;BME280;1786;52.870;9.578;2023-05-10T05:47:10;99812.63;;;30.08;31.83
3544;BME280;1786;52.870;9.578;2023-05-10T05:49:37;99829.31;;;30.40;30.74
3544;BME280;1786;52.870;9.578;2023-05-10T05:52:04;99825.59;;;30.47;31.14
3544;BME280;1786;52.870;9.578;2023-05-10T05:54:31;99837.25;;;30.76;31.31
3544;BME280;1786;52.870;9.578;2023-05-10T05:56:59;99847.78;;;31.62;31.42
3544;BME280;1786;52.870;9.578;2023-05-10T05:59:27;99843.31;;;30.95;31.56
3544;BME280;1786;52.870;9.578;2023-05-10T06:01:54;99845.31;;;31.21;30.92
3544;BME280;1786;52.870;9.578;2023-05-10T06:04:21;99844.47;;;30.82;31.62
3544;BME280;1786;52.870;9.578;2023-05-10T06:06:48;99839.28;;;31.19;31.42
3544;BME280;1786;52.870;9.578;2023-05-10T06:09:15;99845.50;;;31.54;31.00
3544;BME280;1786;52.870;9.578;2023-05-10T06:11:42;99847.28;;;31.26;31.22
3544;BME280;1786;52.870;9.578;2023-05-10T06:14:10;99847.88;;;30.27;31.88
3544;BME280;1786;52.870;9.578;2023-05-10T06:16:37;99846.50;;;30.75;31.87
3544;BME280;1786;52.870;9.578;2023-05-10T06:19:03;99850.78;;;30.37;32.24
3544;BME280;1786;52.870;9.578;2023-05-10T06:21:30;99854.28;;;30.49;31.83
3544;BME280;1786;52.870;9.578;2023-05-10T06:23:57;99848.72;;;29.87;31.96
3544;BME280;1786;52.870;9.578;2023-05-10T06:26:23;99845.25;;;28.92;34.00
3544;BME280;1786;52.870;9.578;2023-05-10T06:28:50;99851.16;;;29.71;32.98
3544;BME280;1786;52.870;9.578;2023-05-10T06:31:17;99853.56;;;29.09;34.07
3544;BME280;1786;52.870;9.578;2023-05-10T06:33:44;99859.78;;;28.98;34.28
3544;BME280;1786;52.870;9.578;2023-05-10T06:36:10;99866.63;;;28.53;34.32
3544;BME280;1786;52.870;9.578;2023-05-10T06:38:38;99865.78;;;28.64;34.56
3544;BME280;1786;52.870;9.578;2023-05-10T06:41:05;99861.69;;;28.74;34.58
3544;BME280;1786;52.870;9.578;2023-05-10T06:43:32;99869.50;;;28.82;34.24
3544;BME280;1786;52.870;9.578;2023-05-10T06:45:58;99871.84;;;28.78;34.75
3544;BME280;1786;52.870;9.578;2023-05-10T06:48:25;99872.41;;;28.57;34.22
3544;BME280;1786;52.870;9.578;2023-05-10T06:50:52;99867.47;;;28.77;34.71
3544;BME280;1786;52.870;9.578;2023-05-10T06:53:19;99864.38;;;28.62;34.79
3544;BME280;1786;52.870;9.578;2023-05-10T06:55:45;99864.50;;;28.55;35.02
3544;BME280;1786;52.870;9.578;2023-05-10T06:58:12;99862.25;;;28.64;34.92
3544;BME280;1786;52.870;9.578;2023-05-10T07:00:39;99856.38;;;28.90;35.38
3544;BME280;1786;52.870;9.578;2023-05-10T07:03:07;99859.69;;;28.92;35.07
3544;BME280;1786;52.870;9.578;2023-05-10T07:05:33;99860.22;;;29.89;34.45
3544;BME280;1786;52.870;9.578;2023-05-10T07:08:01;99866.91;;;29.98;34.31
3544;BME280;1786;52.870;9.578;2023-05-10T07:10:28;99858.97;;;28.97;35.48
3544;BME280;1786;52.870;9.578;2023-05-10T07:12:54;99870.88;;;28.61;35.87
3544;BME280;1786;52.870;9.578;2023-05-10T07:15:21;99860.50;;;29.52;35.04
3544;BME280;1786;52.870;9.578;2023-05-10T07:17:48;99879.06;;;29.79;35.24
3544;BME280;1786;52.870;9.578;2023-05-10T07:20:14;99881.75;;;30.31;35.39
3544;BME280;1786;52.870;9.578;2023-05-10T07:22:41;99879.69;;;31.00;34.39
3544;BME280;1786;52.870;9.578;2023-05-10T07:25:08;99885.28;;;31.27;33.86
3544;BME280;1786;52.870;9.578;2023-05-10T07:27:35;99892.63;;;31.27;33.14
3544;BME280;1786;52.870;9.578;2023-05-10T07:30:02;99893.00;;;30.51;34.41
3544;BME280;1786;52.870;9.578;2023-05-10T07:32:28;99891.28;;;30.79;34.06
3544;BME280;1786;52.870;9.578;2023-05-10T07:34:55;99901.91;;;31.26;34.87
3544;BME280;1786;52.870;9.578;2023-05-10T07:37:22;99903.63;;;30.81;34.43
3544;BME280;1786;52.870;9.578;2023-05-10T07:39:49;99902.09;;;30.86;34.17
3544;BME280;1786;52.870;9.578;2023-05-10T07:42:15;99899.97;;;30.76;34.93
3544;BME280;1786;52.870;9.578;2023-05-10T07:44:42;99904.91;;;31.08;34.85
3544;BME280;1786;52.870;9.578;2023-05-10T07:47:09;99907.59;;;32.02;34.17
3544;BME280;1786;52.870;9.578;2023-05-10T07:49:36;99911.47;;;32.28;33.67
3544;BME280;1786;52.870;9.578;2023-05-10T07:52:03;99915.78;;;32.24;33.84
3544;BME280;1786;52.870;9.578;2023-05-10T07:54:29;99920.69;;;32.22;33.91
3544;BME280;1786;52.870;9.578;2023-05-10T07:56:56;99916.63;;;31.81;34.63
3544;BME280;1786;52.870;9.578;2023-05-10T07:59:23;99918.28;;;31.09;35.11
3544;BME280;1786;52.870;9.578;2023-05-10T08:01:49;99916.88;;;31.07;35.35
3544;BME280;1786;52.870;9.578;2023-05-10T08:04:16;99924.47;;;31.04;35.54
3544;BME280;1786;52.870;9.578;2023-05-10T08:06:43;99923.44;;;31.61;34.24
3544;BME280;1786;52.870;9.578;2023-05-10T08:09:10;99933.34;;;31.67;34.35
3544;BME280;1786;52.870;9.578;2023-05-10T08:11:37;99938.53;;;31.47;34.74
3544;BME280;1786;52.870;9.578;2023-05-10T08:14:04;99940.34;;;31.97;34.28
3544;BME280;1786;52.870;9.578;2023-05-10T08:16:30;99951.03;;;31.99;34.73
3544;BME280;1786;52.870;9.578;2023-05-10T08:18:58;99944.63;;;31.71;34.43
3544;BME280;1786;52.870;9.578;2023-05-10T08:21:24;99948.22;;;31.94;34.91
3544;BME280;1786;52.870;9.578;2023-05-10T08:23:51;99960.00;;;32.16;34.74
3544;BME280;1786;52.870;9.578;2023-05-10T08:26:17;99960.94;;;32.05;34.92
3544;BME280;1786;52.870;9.578;2023-05-10T08:28:44;99959.81;;;31.84;35.18
3544;BME280;1786;52.870;9.578;2023-05-10T08:31:11;99966.47;;;32.10;34.71
3544;BME280;1786;52.870;9.578;2023-05-10T08:33:38;99962.03;;;32.04;35.39
3544;BME280;1786;52.870;9.578;2023-05-10T08:36:07;99970.66;;;31.96;35.93
3544;BME280;1786;52.870;9.578;2023-05-10T08:38:37;99981.53;;;32.34;35.27
3544;BME280;1786;52.870;9.578;2023-05-10T08:41:04;99973.84;;;32.53;34.75
3544;BME280;1786;52.870;9.578;2023-05-10T08:43:31;99982.41;;;32.89;34.52
3544;BME280;1786;52.870;9.578;2023-05-10T08:46:00;99983.44;;;32.56;35.00
3544;BME280;1786;52.870;9.578;2023-05-10T08:48:29;99975.09;;;32.46;35.95
3544;BME280;1786;52.870;9.578;2023-05-10T08:50:58;99989.44;;;33.07;35.09
3544;BME280;1786;52.870;9.578;2023-05-10T08:53:28;99996.25;;;33.05;34.74
3544;BME280;1786;52.870;9.578;2023-05-10T08:55:56;99992.53;;;32.89;35.30
3544;BME280;1786;52.870;9.578;2023-05-10T08:58:23;99993.88;;;33.18;34.66
3544;BME280;1786;52.870;9.578;2023-05-10T09:00:50;99998.88;;;33.22;35.16
3544;BME280;1786;52.870;9.578;2023-05-10T09:03:17;100002.03;;;33.46;35.16
3544;BME280;1786;52.870;9.578;2023-05-10T09:05:44;100006.06;;;33.33;34.83
3544;BME280;1786;52.870;9.578;2023-05-10T09:08:13;100015.72;;;33.78;34.22
3544;BME280;1786;52.870;9.578;2023-05-10T09:10:41;100019.53;;;33.39;34.75
3544;BME280;1786;52.870;9.578;2023-05-10T09:13:10;100020.34;;;33.40;35.28
3544;BME280;1786;52.870;9.578;2023-05-10T09:15:38;100021.63;;;33.59;34.60
3544;BME280;1786;52.870;9.578;2023-05-10T09:18:05;100025.56;;;33.79;34.64
3544;BME280;1786;52.870;9.578;2023-05-10T09:20:32;100031.47;;;34.03;34.61
3544;BME280;1786;52.870;9.578;2023-05-10T09:22:59;100025.69;;;33.99;34.65
3544;BME280;1786;52.870;9.578;2023-05-10T09:25:26;100025.06;;;34.35;34.86
3544;BME280;1786;52.870;9.578;2023-05-10T09:27:52;100028.75;;;34.61;34.45
3544;BME280;1786;52.870;9.578;2023-05-10T09:30:30;100031.97;;;34.42;34.30
3544;BME280;1786;52.870;9.578;2023-05-10T09:32:58;100027.56;;;34.46;34.22
3544;BME280;1786;52.870;9.578;2023-05-10T09:35:28;100031.91;;;34.32;34.51
3544;BME280;1786;52.870;9.578;2023-05-10T09:37:58;100037.75;;;33.98;34.57
3544;BME280;1786;52.870;9.578;2023-05-10T09:40:27;100037.47;;;34.42;34.60
3544;BME280;1786;52.870;9.578;2023-05-10T09:42:58;100038.97;;;34.13;35.17
3544;BME280;1786;52.870;9.578;2023-05-10T09:45:28;100050.81;;;34.29;34.57
3544;BME280;1786;52.870;9.578;2023-05-10T09:47:56;100048.56;;;34.78;34.64
3544;BME280;1786;52.870;9.578;2023-05-10T09:50:23;100055.13;;;34.77;34.77
3544;BME280;1786;52.870;9.578;2023-05-10T09:53:00;100057.44;;;35.37;33.80
3544;BME280;1786;52.870;9.578;2023-05-10T09:55:43;100057.44;;;35.11;34.32
3544;BME280;1786;52.870;9.578;2023-05-10T09:58:13;100053.88;;;35.26;34.00
3544;BME280;1786;52.870;9.578;2023-05-10T10:00:42;100052.50;;;35.44;33.59
3544;BME280;1786;52.870;9.578;2023-05-10T10:03:17;100054.97;;;35.25;34.18
3544;BME280;1786;52.870;9.578;2023-05-10T10:05:44;100058.53;;;35.87;33.65
3544;BME280;1786;52.870;9.578;2023-05-10T10:08:12;100057.28;;;36.34;32.79
3544;BME280;1786;52.870;9.578;2023-05-10T10:10:40;100061.75;;;36.25;33.66
3544;BME280;1786;52.870;9.578;2023-05-10T10:13:07;100064.72;;;36.33;33.25
3544;BME280;1786;52.870;9.578;2023-05-10T10:15:34;100071.53;;;36.51;32.88
3544;BME280;1786;52.870;9.578;2023-05-10T10:18:02;100068.09;;;36.85;32.59
3544;BME280;1786;52.870;9.578;2023-05-10T10:20:31;100075.84;;;37.22;32.67
3544;BME280;1786;52.870;9.578;2023-05-10T10:22:57;100077.00;;;37.16;32.45
3544;BME280;1786;52.870;9.578;2023-05-10T10:25:24;100077.53;;;37.58;32.39
3544;BME280;1786;52.870;9.578;2023-05-10T10:30:29;100083.69;;;37.39;31.98
3544;BME280;1786;52.870;9.578;2023-05-10T10:35:54;100075.66;;;37.09;32.40
3544;BME280;1786;52.870;9.578;2023-05-10T10:38:21;100077.16;;;36.86;32.12
3544;BME280;1786;52.870;9.578;2023-05-10T10:41:02;100089.41;;;37.14;32.05
3544;BME280;1786;52.870;9.578;2023-05-10T10:43:29;100082.19;;;37.23;31.47
3544;BME280;1786;52.870;9.578;2023-05-10T10:48:36;100089.13;;;37.15;31.83
3544;BME280;1786;52.870;9.578;2023-05-10T10:51:03;100094.88;;;36.74;31.84
3544;BME280;1786;52.870;9.578;2023-05-10T10:53:29;100090.66;;;36.87;31.80
3544;BME280;1786;52.870;9.578;2023-05-10T10:56:11;100087.31;;;36.25;32.67
3544;BME280;1786;52.870;9.578;2023-05-10T10:58:40;100089.56;;;36.03;32.94
3544;BME280;1786;52.870;9.578;2023-05-10T11:01:13;100087.34;;;36.20;32.81
3544;BME280;1786;52.870;9.578;2023-05-10T11:03:41;100086.00;;;36.12;32.76
3544;BME280;1786;52.870;9.578;2023-05-10T11:06:34;100087.13;;;35.65;33.27
3544;BME280;1786;52.870;9.578;2023-05-10T11:09:06;100086.59;;;35.79;33.29
3544;BME280;1786;52.870;9.578;2023-05-10T11:11:34;100083.25;;;35.36;33.08
3544;BME280;1786;52.870;9.578;2023-05-10T11:14:07;100080.00;;;35.74;33.33
3544;BME280;1786;52.870;9.578;2023-05-10T11:16:42;100085.47;;;35.90;33.57
3544;BME280;1786;52.870;9.578;2023-05-10T11:19:16;100092.59;;;36.16;33.10
3544;BME280;1786;52.870;9.578;2023-05-10T11:24:31;100099.38;;;37.10;32.81
3544;BME280;1786;52.870;9.578;2023-05-10T11:26:59;100098.97;;;37.27;31.95
3544;BME280;1786;52.870;9.578;2023-05-10T11:29:26;100095.59;;;36.90;32.34
3544;BME280;1786;52.870;9.578;2023-05-10T11:31:56;100098.38;;;36.85;32.04
3544;BME280;1786;52.870;9.578;2023-05-10T11:34:28;100098.44;;;37.19;31.74
3544;BME280;1786;52.870;9.578;2023-05-10T11:37:01;100096.16;;;36.92;31.96
3544;BME280;1786;52.870;9.578;2023-05-10T11:39:30;100104.63;;;37.45;31.52
3544;BME280;1786;52.870;9.578;2023-05-10T11:41:57;100107.63;;;37.10;32.49
3544;BME280;1786;52.870;9.578;2023-05-10T11:44:30;100099.63;;;37.47;31.82
3544;BME280;1786;52.870;9.578;2023-05-10T11:47:00;100103.88;;;37.69;31.65
3544;BME280;1786;52.870;9.578;2023-05-10T11:49:27;100111.72;;;37.86;31.30
3544;BME280;1786;52.870;9.578;2023-05-10T11:52:06;100114.88;;;38.27;30.70
3544;BME280;1786;52.870;9.578;2023-05-10T11:54:33;100118.13;;;38.35;31.31
3544;BME280;1786;52.870;9.578;2023-05-10T11:57:02;100124.69;;;38.44;29.78
3544;BME280;1786;52.870;9.578;2023-05-10T11:59:29;100125.50;;;38.15;30.35
3544;BME280;1786;52.870;9.578;2023-05-10T12:01:56;100126.78;;;38.52;30.36
3544;BME280;1786;52.870;9.578;2023-05-10T12:04:23;100126.03;;;39.08;29.35
3544;BME280;1786;52.870;9.578;2023-05-10T12:06:49;100132.59;;;38.50;29.09
3544;BME280;1786;52.870;9.578;2023-05-10T12:09:16;100126.78;;;38.52;29.93
3544;BME280;1786;52.870;9.578;2023-05-10T12:11:48;100126.31;;;38.69;30.20
3544;BME280;1786;52.870;9.578;2023-05-10T12:14:16;100125.09;;;38.75;29.93
3544;BME280;1786;52.870;9.578;2023-05-10T12:16:43;100125.03;;;39.04;29.58
3544;BME280;1786;52.870;9.578;2023-05-10T12:19:09;100132.19;;;39.43;29.12
3544;BME280;1786;52.870;9.578;2023-05-10T12:21:36;100128.81;;;38.89;29.47
3544;BME280;1786;52.870;9.578;2023-05-10T12:24:05;100131.91;;;38.83;28.99
3544;BME280;1786;52.870;9.578;2023-05-10T12:26:31;100135.91;;;38.95;28.82
3544;BME280;1786;52.870;9.578;2023-05-10T12:29:15;100143.25;;;39.24;28.12
3544;BME280;1786;52.870;9.578;2023-05-10T12:31:57;100147.50;;;38.98;29.33
3544;BME280;1786;52.870;9.578;2023-05-10T12:34:24;100142.81;;;38.50;29.60
3544;BME280;1786;52.870;9.578;2023-05-10T12:36:53;100144.94;;;38.05;31.11
3544;BME280;1786;52.870;9.578;2023-05-10T12:39:20;100159.66;;;38.24;30.58
3544;BME280;1786;52.870;9.578;2023-05-10T12:41:46;100166.41;;;37.79;31.20
3544;BME280;1786;52.870;9.578;2023-05-10T12:44:13;100161.00;;;37.19;31.53
3544;BME280;1786;52.870;9.578;2023-05-10T12:46:39;100157.78;;;37.07;32.09
3544;BME280;1786;52.870;9.578;2023-05-10T12:49:06;100162.34;;;36.67;32.98
3544;BME280;1786;52.870;9.578;2023-05-10T12:51:35;100165.31;;;36.80;32.58
3544;BME280;1786;52.870;9.578;2023-05-10T12:54:02;100170.09;;;36.59;32.98
3544;BME280;1786;52.870;9.578;2023-05-10T12:56:29;100182.81;;;36.20;33.94
3544;BME280;1786;52.870;9.578;2023-05-10T12:58:56;100173.81;;;35.00;35.23
3544;BME280;1786;52.870;9.578;2023-05-10T13:01:23;100174.84;;;34.78;35.03
3544;BME280;1786;52.870;9.578;2023-05-10T13:03:49;100173.22;;;34.93;35.45
3544;BME280;1786;52.870;9.578;2023-05-10T13:06:16;100171.72;;;35.32;34.93
3544;BME280;1786;52.870;9.578;2023-05-10T13:08:43;100174.00;;;35.92;34.54
3544;BME280;1786;52.870;9.578;2023-05-10T13:11:09;100178.69;;;36.17;33.79
3544;BME280;1786;52.870;9.578;2023-05-10T13:13:36;100178.69;;;36.02;33.14
3544;BME280;1786;52.870;9.578;2023-05-10T13:16:03;100187.16;;;36.41;33.46
3544;BME280;1786;52.870;9.578;2023-05-10T13:18:30;100182.66;;;36.86;33.02
3544;BME280;1786;52.870;9.578;2023-05-10T13:20:57;100182.53;;;37.12;32.95
3544;BME280;1786;52.870;9.578;2023-05-10T13:23:23;100189.63;;;37.28;32.95
3544;BME280;1786;52.870;9.578;2023-05-10T13:25:50;100190.22;;;37.20;32.92
3544;BME280;1786;52.870;9.578;2023-05-10T13:28:17;100188.59;;;37.14;32.52
3544;BME280;1786;52.870;9.578;2023-05-10T13:30:43;100189.66;;;37.23;32.95
3544;BME280;1786;52.870;9.578;2023-05-10T13:33:10;100185.84;;;37.63;32.79
3544;BME280;1786;52.870;9.578;2023-05-10T13:35:37;100188.78;;;37.72;32.54
3544;BME280;1786;52.870;9.578;2023-05-10T13:38:04;100189.03;;;37.36;34.03
3544;BME280;1786;52.870;9.578;2023-05-10T13:40:30;100189.34;;;36.65;34.46
3544;BME280;1786;52.870;9.578;2023-05-10T13:42:57;100181.84;;;37.40;33.74
3544;BME280;1786;52.870;9.578;2023-05-10T13:45:23;100180.50;;;37.33;33.52
3544;BME280;1786;52.870;9.578;2023-05-10T13:47:50;100174.59;;;36.09;33.51
3544;BME280;1786;52.870;9.578;2023-05-10T13:50:18;100163.19;;;35.14;34.48
3544;BME280;1786;52.870;9.578;2023-05-10T13:52:45;100170.13;;;36.34;33.99